sensor_id;sensor_type;location;lat;lon;timestamp;pressure;altitude;pressure_sealevel;temperature;humidity
69848;BME280;57143;55.940;37.496;2023-09-19T00:00:26;99949.00;;;9.56;100.00
69848;BME280;57143;55.940;37.496;2023-09-19T00:02:54;99944.44;;;9.57;100.00
69848;BME280;57143;55.940;37.496;2023-09-19T00:05:26;99907.97;;;9.33;100.00
69848;BME280;57143;55.940;37.496;2023-09-19T00:07:55;99936.53;;;9.49;100.00
69848;BME280;57143;55.940;37.496;2023-09-19T00:10:25;99959.25;;;9.61;100.00
69848;BME280;57143;55.940;37.496;2023-09-19T00:12:54;99959.81;;;9.50;100.00
69848;BME280;57143;55.940;37.496;2023-09-19T00:15:24;99957.56;;;9.60;100.00
69848;BME280;57143;55.940;37.496;2023-09-19T00:17:52;99960.06;;;9.61;100.00
69848;BME280;57143;55.940;37.496;2023-09-19T00:20:19;99956.13;;;9.64;100.00
69848;BME280;57143;55.940;37.496;2023-09-19T00:22:49;99958.41;;;9.67;100.00
69848;BME280;57143;55.940;37.496;2023-09-19T00:25:18;99946.72;;;9.60;100.00
69848;BME280;57143;55.940;37.496;2023-09-19T00:27:45;99956.75;;;9.72;100.00
69848;BME280;57143;55.940;37.496;2023-09-19T00:30:13;99960.31;;;9.73;100.00
69848;BME280;57143;55.940;37.496;2023-09-19T00:32:47;99965.09;;;9.77;100.00
69848;BME280;57143;55.940;37.496;2023-09-19T00:35:15;99976.97;;;9.83;100.00
69848;BME280;57143;55.940;37.496;2023-09-19T00:37:42;99973.44;;;9.82;100.00
69848;BME280;57143;55.940;37.496;2023-09-19T00:40:10;99964.28;;;9.83;100.00
69848;BME280;57143;55.940;37.496;2023-09-19T00:42:39;99966.56;;;9.86;100.00
69848;BME280;57143;55.940;37.496;2023-09-19T00:45:07;99970.34;;;9.85;100.00
69848;BME280;57143;55.940;37.496;2023-09-19T00:47:37;99977.41;;;9.86;100.00
69848;BME280;57143;55.940;37.496;2023-09-19T00:50:09;99983.03;;;9.85;100.00
69848;BME280;57143;55.940;37.496;2023-09-19T00:52:40;99985.09;;;9.83;100.00
69848;BME280;57143;55.940;37.496;2023-09-19T00:55:10;99987.19;;;9.81;100.00
69848;BME280;57143;55.940;37.496;2023-09-19T00:57:40;99988.44;;;9.78;100.00
69848;BME280;57143;55.940;37.496;2023-09-19T01:00:08;99987.81;;;9.83;100.00
69848;BME280;57143;55.940;37.496;2023-09-19T01:02:41;100001.56;;;9.88;100.00
69848;BME280;57143;55.940;37.496;2023-09-19T01:05:11;100000.72;;;9.87;100.00
69848;BME280;57143;55.940;37.496;2023-09-19T01:07:39;100000.28;;;9.84;100.00
69848;BME280;57143;55.940;37.496;2023-09-19T01:10:08;100007.19;;;9.86;100.00
69848;BME280;57143;55.940;37.496;2023-09-19T01:12:45;100001.97;;;9.85;100.00
69848;BME280;57143;55.940;37.496;2023-09-19T01:15:21;100004.25;;;9.81;100.00
69848;BME280;57143;55.940;37.496;2023-09-19T01:17:57;99998.22;;;9.79;100.00
69848;BME280;57143;55.940;37.496;2023-09-19T01:20:33;99994.44;;;9.74;100.00
69848;BME280;57143;55.940;37.496;2023-09-19T01:23:15;100013.81;;;9.77;100.00
69848;BME280;57143;55.940;37.496;2023-09-19T01:26:05;100002.16;;;9.77;100.00
69848;BME280;57143;55.940;37.496;2023-09-19T01:29:00;100001.31;;;9.70;100.00
69848;BME280;57143;55.940;37.496;2023-09-19T01:31:31;100002.13;;;9.70;100.00
69848;BME280;57143;55.940;37.496;2023-09-19T01:34:03;100008.81;;;9.74;100.00
69848;BME280;57143;55.940;37.496;2023-09-19T01:36:33;100006.97;;;9.75;100.00
69848;BME280;57143;55.940;37.496;2023-09-19T01:39:04;99981.53;;;9.63;100.00
69848;BME280;57143;55.940;37.496;2023-09-19T01:41:58;100003.41;;;9.81;100.00
69848;BME280;57143;55.940;37.496;2023-09-19T01:44:36;99997.78;;;9.82;100.00
69848;BME280;57143;55.940;37.496;2023-09-19T01:47:13;99995.72;;;9.84;100.00
69848;BME280;57143;55.940;37.496;2023-09-19T01:49:50;99982.59;;;9.81;100.00
69848;BME280;57143;55.940;37.496;2023-09-19T01:52:27;99987.59;;;9.84;100.00
69848;BME280;57143;55.940;37.496;2023-09-19T01:54:57;99983.88;;;9.85;100.00
69848;BME280;57143;55.940;37.496;2023-09-19T01:57:35;99992.16;;;9.84;100.00
69848;BME280;57143;55.940;37.496;2023-09-19T02:00:10;99987.81;;;9.76;100.00
69848;BME280;57143;55.940;37.496;2023-09-19T02:02:44;99986.75;;;9.84;100.00
69848;BME280;57143;55.940;37.496;2023-09-19T02:05:12;99969.50;;;9.78;100.00
69848;BME280;57143;55.940;37.496;2023-09-19T02:07:39;99973.63;;;9.74;100.00
69848;BME280;57143;55.940;37.496;2023-09-19T02:10:07;99978.41;;;9.79;100.00
69848;BME280;57143;55.940;37.496;2023-09-19T02:12:36;99976.34;;;9.74;100.00
69848;BME280;57143;55.940;37.496;2023-09-19T02:15:06;99975.06;;;9.70;100.00
69848;BME280;57143;55.940;37.496;2023-09-19T02:17:34;99973.63;;;9.68;100.00
69848;BME280;57143;55.940;37.496;2023-09-19T02:20:03;99959.88;;;9.69;100.00
69848;BME280;57143;55.940;37.496;2023-09-19T02:22:36;99967.78;;;9.64;100.00
69848;BME280;57143;55.940;37.496;2023-09-19T02:25:24;99953.63;;;9.56;100.00
69848;BME280;57143;55.940;37.496;2023-09-19T02:27:52;99962.75;;;9.55;100.00
69848;BME280;57143;55.940;37.496;2023-09-19T02:30:20;99967.09;;;9.49;100.00
69848;BME280;57143;55.940;37.496;2023-09-19T02:32:50;99960.81;;;9.35;100.00
69848;BME280;57143;55.940;37.496;2023-09-19T02:35:19;99965.84;;;9.39;100.00
69848;BME280;57143;55.940;37.496;2023-09-19T02:37:46;99962.84;;;9.20;100.00
69848;BME280;57143;55.940;37.496;2023-09-19T02:40:14;99961.63;;;9.23;100.00
69848;BME280;57143;55.940;37.496;2023-09-19T02:42:46;99952.25;;;9.19;100.00
69848;BME280;57143;55.940;37.496;2023-09-19T02:45:16;99947.47;;;9.14;100.00
69848;BME280;57143;55.940;37.496;2023-09-19T02:47:45;99948.91;;;9.17;100.00
69848;BME280;57143;55.940;37.496;2023-09-19T02:50:12;99945.97;;;9.12;100.00
69848;BME280;57143;55.940;37.496;2023-09-19T02:52:43;99948.91;;;9.17;100.00
69848;BME280;57143;55.940;37.496;2023-09-19T02:55:11;99944.75;;;9.14;100.00
69848;BME280;57143;55.940;37.496;2023-09-19T02:57:41;99950.34;;;9.13;100.00
69848;BME280;57143;55.940;37.496;2023-09-19T03:00:13;99955.16;;;9.17;100.00
69848;BME280;57143;55.940;37.496;2023-09-19T03:02:40;99955.56;;;9.14;100.00
69848;BME280;57143;55.940;37.496;2023-09-19T03:05:08;99947.19;;;9.09;100.00
69848;BME280;57143;55.940;37.496;2023-09-19T03:07:37;99949.72;;;9.11;100.00
69848;BME280;57143;55.940;37.496;2023-09-19T03:10:07;99942.22;;;9.06;100.00
69848;BME280;57143;55.940;37.496;2023-09-19T03:12:34;99922.84;;;8.96;100.00
69848;BME280;57143;55.940;37.496;2023-09-19T03:15:03;99959.09;;;9.21;100.00
69848;BME280;57143;55.940;37.496;2023-09-19T03:17:31;99957.69;;;9.25;100.00
69848;BME280;57143;55.940;37.496;2023-09-19T03:19:59;99942.28;;;9.19;100.00
69848;BME280;57143;55.940;37.496;2023-09-19T03:22:27;99921.63;;;9.05;100.00
69848;BME280;57143;55.940;37.496;2023-09-19T03:24:54;99931.84;;;9.16;100.00
69848;BME280;57143;55.940;37.496;2023-09-19T03:27:23;99936.25;;;9.24;100.00
69848;BME280;57143;55.940;37.496;2023-09-19T03:29:50;99942.09;;;9.34;100.00
69848;BME280;57143;55.940;37.496;2023-09-19T03:32:17;99947.50;;;9.34;100.00
69848;BME280;57143;55.940;37.496;2023-09-19T03:34:45;99935.66;;;9.35;100.00
69848;BME280;57143;55.940;37.496;2023-09-19T03:37:14;99931.91;;;9.36;100.00
69848;BME280;57143;55.940;37.496;2023-09-19T03:39:41;99940.88;;;9.37;100.00
69848;BME280;57143;55.940;37.496;2023-09-19T03:42:09;99948.38;;;9.48;100.00
69848;BME280;57143;55.940;37.496;2023-09-19T03:44:37;99943.81;;;9.48;100.00
69848;BME280;57143;55.940;37.496;2023-09-19T03:47:05;99919.44;;;9.35;100.00
69848;BME280;57143;55.940;37.496;2023-09-19T03:49:32;99955.47;;;9.55;100.00
69848;BME280;57143;55.940;37.496;2023-09-19T03:51:59;99906.13;;;9.40;100.00
69848;BME280;57143;55.940;37.496;2023-09-19T03:54:27;99924.06;;;9.54;100.00
69848;BME280;57143;55.940;37.496;2023-09-19T03:56:54;99945.28;;;9.64;100.00
69848;BME280;57143;55.940;37.496;2023-09-19T03:59:21;99940.31;;;9.67;100.00
69848;BME280;57143;55.940;37.496;2023-09-19T04:01:50;99917.38;;;9.57;100.00
69848;BME280;57143;55.940;37.496;2023-09-19T04:04:21;99944.06;;;9.73;100.00
69848;BME280;57143;55.940;37.496;2023-09-19T04:06:50;99939.06;;;9.76;100.00
69848;BME280;57143;55.940;37.496;2023-09-19T04:09:18;99942.63;;;9.83;100.00
69848;BME280;57143;55.940;37.496;2023-09-19T04:11:45;99946.59;;;9.94;100.00
69848;BME280;57143;55.940;37.496;2023-09-19T04:14:12;99945.34;;;9.96;100.00
69848;BME280;57143;55.940;37.496;2023-09-19T04:16:39;99947.63;;;9.99;100.00
69848;BME280;57143;55.940;37.496;2023-09-19T04:19:08;99934.50;;;10.03;100.00
69848;BME280;57143;55.940;37.496;2023-09-19T04:21:36;99950.38;;;10.38;100.00
69848;BME280;57143;55.940;37.496;2023-09-19T04:24:03;99953.25;;;10.57;100.00
69848;BME280;57143;55.940;37.496;2023-09-19T04:26:31;99920.38;;;10.33;100.00
69848;BME280;57143;55.940;37.496;2023-09-19T04:28:58;99957.63;;;10.58;100.00
69848;BME280;57143;55.940;37.496;2023-09-19T04:31:26;99965.75;;;10.64;100.00
69848;BME280;57143;55.940;37.496;2023-09-19T04:33:54;99929.31;;;10.47;100.00
69848;BME280;57143;55.940;37.496;2023-09-19T04:36:24;99963.88;;;10.71;100.00
69848;BME280;57143;55.940;37.496;2023-09-19T04:38:51;99955.75;;;10.65;100.00
69848;BME280;57143;55.940;37.496;2023-09-19T04:41:19;99945.75;;;10.59;100.00
69848;BME280;57143;55.940;37.496;2023-09-19T04:43:48;99953.22;;;10.63;100.00
69848;BME280;57143;55.940;37.496;2023-09-19T04:46:16;99941.38;;;10.58;100.00
69848;BME280;57143;55.940;37.496;2023-09-19T04:48:43;99945.09;;;10.70;100.00
69848;BME280;57143;55.940;37.496;2023-09-19T04:51:11;99953.25;;;10.70;100.00
69848;BME280;57143;55.940;37.496;2023-09-19T04:53:40;99950.91;;;10.67;100.00
69848;BME280;57143;55.940;37.496;2023-09-19T04:56:09;99953.84;;;10.72;100.00
69848;BME280;57143;55.940;37.496;2023-09-19T04:58:36;99947.59;;;10.71;100.00
69848;BME280;57143;55.940;37.496;2023-09-19T05:01:03;99950.09;;;10.73;100.00
69848;BME280;57143;55.940;37.496;2023-09-19T05:03:31;99942.59;;;10.68;100.00
69848;BME280;57143;55.940;37.496;2023-09-19T05:05:58;99919.03;;;10.62;100.00
69848;BME280;57143;55.940;37.496;2023-09-19T05:08:26;99844.50;;;10.27;100.00
69848;BME280;57143;55.940;37.496;2023-09-19T05:10:55;99949.97;;;11.12;100.00
69848;BME280;57143;55.940;37.496;2023-09-19T05:13:22;99946.22;;;11.06;100.00
69848;BME280;57143;55.940;37.496;2023-09-19T05:15:50;99922.13;;;10.85;100.00
69848;BME280;57143;55.940;37.496;2023-09-19T05:18:17;99948.59;;;10.90;100.00
69848;BME280;57143;55.940;37.496;2023-09-19T05:20:44;99921.50;;;10.70;100.00
69848;BME280;57143;55.940;37.496;2023-09-19T05:23:11;99929.25;;;10.73;100.00
69848;BME280;57143;55.940;37.496;2023-09-19T05:25:40;99924.41;;;10.75;100.00
69848;BME280;57143;55.940;37.496;2023-09-19T05:28:10;99919.63;;;10.77;100.00
69848;BME280;57143;55.940;37.496;2023-09-19T05:30:41;99924.19;;;10.90;100.00
69848;BME280;57143;55.940;37.496;2023-09-19T05:33:09;99932.69;;;11.00;100.00
69848;BME280;57143;55.940;37.496;2023-09-19T05:35:36;99888.13;;;10.83;100.00
69848;BME280;57143;55.940;37.496;2023-09-19T05:38:05;99933.69;;;11.12;100.00
69848;BME280;57143;55.940;37.496;2023-09-19T05:40:34;99932.41;;;11.21;100.00
69848;BME280;57143;55.940;37.496;2023-09-19T05:43:04;99936.53;;;11.30;100.00
69848;BME280;57143;55.940;37.496;2023-09-19T05:45:32;99904.69;;;11.12;100.00
69848;BME280;57143;55.940;37.496;2023-09-19T05:48:08;99936.72;;;11.35;100.00
69848;BME280;57143;55.940;37.496;2023-09-19T05:50:37;99930.22;;;11.36;100.00
69848;BME280;57143;55.940;37.496;2023-09-19T05:53:04;99933.94;;;11.41;100.00
69848;BME280;57143;55.940;37.496;2023-09-19T05:55:32;99940.59;;;11.52;100.00
69848;BME280;57143;55.940;37.496;2023-09-19T05:57:59;99937.81;;;11.58;100.00
69848;BME280;57143;55.940;37.496;2023-09-19T06:00:27;99921.72;;;11.63;100.00
69848;BME280;57143;55.940;37.496;2023-09-19T06:02:57;99940.13;;;11.93;100.00
69848;BME280;57143;55.940;37.496;2023-09-19T06:05:25;99921.34;;;11.91;100.00
69848;BME280;57143;55.940;37.496;2023-09-19T06:07:53;99934.59;;;12.06;100.00
69848;BME280;57143;55.940;37.496;2023-09-19T06:10:20;99944.34;;;12.13;100.00
69848;BME280;57143;55.940;37.496;2023-09-19T06:12:49;99946.34;;;12.24;100.00
69848;BME280;57143;55.940;37.496;2023-09-19T06:15:16;99950.41;;;12.40;100.00
69848;BME280;57143;55.940;37.496;2023-09-19T06:17:46;99949.06;;;12.49;100.00
69848;BME280;57143;55.940;37.496;2023-09-19T06:20:16;99933.78;;;12.48;100.00
69848;BME280;57143;55.940;37.496;2023-09-19T06:22:45;99962.75;;;13.21;100.00
69848;BME280;57143;55.940;37.496;2023-09-19T06:25:13;99953.13;;;13.66;100.00
69848;BME280;57143;55.940;37.496;2023-09-19T06:27:46;99982.75;;;14.57;100.00
69848;BME280;57143;55.940;37.496;2023-09-19T06:30:13;99986.03;;;15.05;100.00
69848;BME280;57143;55.940;37.496;2023-09-19T06:32:41;99996.78;;;15.46;100.00
69848;BME280;57143;55.940;37.496;2023-09-19T06:35:10;100004.19;;;15.74;100.00
69848;BME280;57143;55.940;37.496;2023-09-19T06:37:39;100019.56;;;15.91;100.00
69848;BME280;57143;55.940;37.496;2023-09-19T06:40:09;100027.66;;;16.43;100.00
69848;BME280;57143;55.940;37.496;2023-09-19T06:42:40;100028.19;;;16.45;100.00
69848;BME280;57143;55.940;37.496;2023-09-19T06:45:08;100047.25;;;16.68;100.00
69848;BME280;57143;55.940;37.496;2023-09-19T06:47:37;100043.56;;;17.12;100.00
69848;BME280;57143;55.940;37.496;2023-09-19T06:50:05;100036.19;;;17.51;100.00
69848;BME280;57143;55.940;37.496;2023-09-19T06:52:42;100042.56;;;17.18;100.00
69848;BME280;57143;55.940;37.496;2023-09-19T06:55:10;100020.78;;;16.73;100.00
69848;BME280;57143;55.940;37.496;2023-09-19T06:57:39;99994.13;;;16.36;100.00
69848;BME280;57143;55.940;37.496;2023-09-19T07:00:07;100010.50;;;16.19;100.00
69848;BME280;57143;55.940;37.496;2023-09-19T07:02:41;100003.47;;;16.06;100.00
69848;BME280;57143;55.940;37.496;2023-09-19T07:05:09;100008.53;;;16.31;100.00
69848;BME280;57143;55.940;37.496;2023-09-19T07:07:36;100005.63;;;16.04;100.00
69848;BME280;57143;55.940;37.496;2023-09-19T07:10:06;99999.97;;;15.94;100.00
69848;BME280;57143;55.940;37.496;2023-09-19T07:12:34;99993.72;;;16.27;100.00
69848;BME280;57143;55.940;37.496;2023-09-19T07:15:01;100001.25;;;16.20;100.00
69848;BME280;57143;55.940;37.496;2023-09-19T07:17:31;100005.66;;;15.93;100.00
69848;BME280;57143;55.940;37.496;2023-09-19T07:19:59;99984.09;;;15.80;100.00
69848;BME280;57143;55.940;37.496;2023-09-19T07:22:26;99974.72;;;15.48;100.00
69848;BME280;57143;55.940;37.496;2023-09-19T07:24:53;99978.78;;;15.73;100.00
69848;BME280;57143;55.940;37.496;2023-09-19T07:27:22;99979.97;;;16.22;100.00
69848;BME280;57143;55.940;37.496;2023-09-19T07:29:49;99990.16;;;16.76;100.00
69848;BME280;57143;55.940;37.496;2023-09-19T07:32:17;99999.50;;;17.35;100.00
69848;BME280;57143;55.940;37.496;2023-09-19T07:34:44;99986.66;;;17.36;100.00
69848;BME280;57143;55.940;37.496;2023-09-19T07:37:11;100003.03;;;17.30;100.00
69848;BME280;57143;55.940;37.496;2023-09-19T07:39:42;99987.06;;;17.06;100.00
69848;BME280;57143;55.940;37.496;2023-09-19T07:42:10;99967.50;;;16.97;100.00
69848;BME280;57143;55.940;37.496;2023-09-19T07:44:45;99991.84;;;16.77;100.00
69848;BME280;57143;55.940;37.496;2023-09-19T07:47:15;99992.97;;;16.81;100.00
69848;BME280;57143;55.940;37.496;2023-09-19T07:49:42;99979.50;;;16.58;100.00
69848;BME280;57143;55.940;37.496;2023-09-19T07:52:10;99957.63;;;16.13;100.00
69848;BME280;57143;55.940;37.496;2023-09-19T07:54:38;99948.31;;;15.98;100.00
69848;BME280;57143;55.940;37.496;2023-09-19T07:57:07;99970.69;;;15.95;100.00
69848;BME280;57143;55.940;37.496;2023-09-19T07:59:34;99976.63;;;15.75;100.00
69848;BME280;57143;55.940;37.496;2023-09-19T08:02:04;99954.91;;;15.69;100.00
69848;BME280;57143;55.940;37.496;2023-09-19T08:04:31;99947.09;;;15.61;100.00
69848;BME280;57143;55.940;37.496;2023-09-19T08:06:59;99953.91;;;15.47;100.00
69848;BME280;57143;55.940;37.496;2023-09-19T08:09:29;99931.53;;;15.22;100.00
69848;BME280;57143;55.940;37.496;2023-09-19T08:11:59;99946.50;;;15.19;100.00
69848;BME280;57143;55.940;37.496;2023-09-19T08:14:29;99937.00;;;15.10;100.00
69848;BME280;57143;55.940;37.496;2023-09-19T08:16:57;99895.19;;;14.81;100.00
69848;BME280;57143;55.940;37.496;2023-09-19T08:19:27;99917.38;;;14.85;100.00
69848;BME280;57143;55.940;37.496;2023-09-19T08:21:57;99910.38;;;14.89;100.00
69848;BME280;57143;55.940;37.496;2023-09-19T08:24:25;99909.16;;;14.96;100.00
69848;BME280;57143;55.940;37.496;2023-09-19T08:26:54;99906.78;;;15.00;100.00
69848;BME280;57143;55.940;37.496;2023-09-19T08:29:22;99906.53;;;15.01;100.00
69848;BME280;57143;55.940;37.496;2023-09-19T08:31:54;99887.22;;;14.91;100.00
69848;BME280;57143;55.940;37.496;2023-09-19T08:34:22;99899.09;;;14.85;100.00
69848;BME280;57143;55.940;37.496;2023-09-19T08:36:52;99879.75;;;14.75;100.00
69848;BME280;57143;55.940;37.496;2023-09-19T08:39:22;99859.63;;;14.65;100.00
69848;BME280;57143;55.940;37.496;2023-09-19T08:41:51;99867.56;;;14.66;100.00
69848;BME280;57143;55.940;37.496;2023-09-19T08:44:23;99837.84;;;14.42;100.00
69848;BME280;57143;55.940;37.496;2023-09-19T08:46:54;99871.13;;;14.67;100.00
69848;BME280;57143;55.940;37.496;2023-09-19T08:49:27;99879.91;;;14.80;100.00
69848;BME280;57143;55.940;37.496;2023-09-19T08:52:04;99869.19;;;14.79;100.00
69848;BME280;57143;55.940;37.496;2023-09-19T08:54:35;99880.22;;;14.95;100.00
69848;BME280;57143;55.940;37.496;2023-09-19T08:57:07;99862.28;;;14.88;100.00
69848;BME280;57143;55.940;37.496;2023-09-19T08:59:38;99833.63;;;14.74;100.00
69848;BME280;57143;55.940;37.496;2023-09-19T09:02:10;99877.22;;;14.97;100.00
69848;BME280;57143;55.940;37.496;2023-09-19T09:04:39;99836.78;;;14.82;100.00
69848;BME280;57143;55.940;37.496;2023-09-19T09:07:11;99871.97;;;15.07;100.00
69848;BME280;57143;55.940;37.496;2023-09-19T09:09:39;99868.41;;;15.06;100.00
69848;BME280;57143;55.940;37.496;2023-09-19T09:12:10;99859.41;;;15.06;100.00
69848;BME280;57143;55.940;37.496;2023-09-19T09:14:39;99849.44;;;15.00;100.00
69848;BME280;57143;55.940;37.496;2023-09-19T09:17:07;99848.25;;;15.07;100.00
69848;BME280;57143;55.940;37.496;2023-09-19T09:19:34;99847.75;;;15.11;100.00
69848;BME280;57143;55.940;37.496;2023-09-19T09:22:06;99860.44;;;15.17;100.00
69848;BME280;57143;55.940;37.496;2023-09-19T09:24:36;99864.56;;;15.19;100.00
69848;BME280;57143;55.940;37.496;2023-09-19T09:27:06;99874.38;;;15.32;100.00
69848;BME280;57143;55.940;37.496;2023-09-19T09:29:41;99857.41;;;15.30;100.00
69848;BME280;57143;55.940;37.496;2023-09-19T09:32:19;99871.13;;;15.46;100.00
69848;BME280;57143;55.940;37.496;2023-09-19T09:34:49;99863.53;;;15.48;100.00
69848;BME280;57143;55.940;37.496;2023-09-19T09:37:17;99881.09;;;15.52;100.00
69848;BME280;57143;55.940;37.496;2023-09-19T09:39:57;99868.28;;;15.53;100.00
69848;BME280;57143;55.940;37.496;2023-09-19T09:42:45;99848.41;;;15.57;100.00
69848;BME280;57143;55.940;37.496;2023-09-19T09:45:16;99851.97;;;15.74;100.00
69848;BME280;57143;55.940;37.496;2023-09-19T09:47:47;99858.78;;;15.88;100.00
69848;BME280;57143;55.940;37.496;2023-09-19T09:50:28;99837.91;;;15.99;100.00
69848;BME280;57143;55.940;37.496;2023-09-19T09:53:03;99841.53;;;16.21;100.00
69848;BME280;57143;55.940;37.496;2023-09-19T09:55:58;99870.13;;;16.47;100.00
69848;BME280;57143;55.940;37.496;2023-09-19T09:58:26;99839.00;;;16.36;100.00
69848;BME280;57143;55.940;37.496;2023-09-19T10:00:57;99866.84;;;16.66;100.00
69848;BME280;57143;55.940;37.496;2023-09-19T10:03:35;99873.00;;;16.40;100.00
69848;BME280;57143;55.940;37.496;2023-09-19T10:06:09;99865.63;;;16.41;100.00
69848;BME280;57143;55.940;37.496;2023-09-19T10:09:04;99856.97;;;16.65;100.00
69848;BME280;57143;55.940;37.496;2023-09-19T10:11:47;99851.66;;;16.75;100.00
69848;BME280;57143;55.940;37.496;2023-09-19T10:14:25;99850.81;;;16.75;100.00
69848;BME280;57143;55.940;37.496;2023-09-19T10:16:56;99752.50;;;16.30;100.00
69848;BME280;57143;55.940;37.496;2023-09-19T10:19:30;99850.97;;;17.06;100.00
69848;BME280;57143;55.940;37.496;2023-09-19T10:22:01;99844.28;;;17.24;100.00
69848;BME280;57143;55.940;37.496;2023-09-19T10:24:30;99845.81;;;17.37;100.00
69848;BME280;57143;55.940;37.496;2023-09-19T10:26:59;99850.00;;;17.44;100.00
69848;BME280;57143;55.940;37.496;2023-09-19T10:29:32;99848.84;;;17.40;100.00
69848;BME280;57143;55.940;37.496;2023-09-19T10:32:03;99847.22;;;17.66;100.00
69848;BME280;57143;55.940;37.496;2023-09-19T10:34:36;99828.81;;;17.61;100.00
69848;BME280;57143;55.940;37.496;2023-09-19T10:37:04;99840.84;;;17.87;100.00
69848;BME280;57143;55.940;37.496;2023-09-19T10:39:36;99841.16;;;17.90;100.00
69848;BME280;57143;55.940;37.496;2023-09-19T10:42:14;99826.47;;;17.75;100.00
69848;BME280;57143;55.940;37.496;2023-09-19T10:44:45;99840.69;;;18.03;100.00
69848;BME280;57143;55.940;37.496;2023-09-19T10:47:15;99844.66;;;18.17;100.00
69848;BME280;57143;55.940;37.496;2023-09-19T10:49:45;99843.09;;;18.31;100.00
69848;BME280;57143;55.940;37.496;2023-09-19T10:52:14;99836.06;;;18.40;100.00
69848;BME280;57143;55.940;37.496;2023-09-19T10:54:48;99828.06;;;18.39;100.00
69848;BME280;57143;55.940;37.496;2023-09-19T10:57:20;99844.13;;;18.57;100.00
69848;BME280;57143;55.940;37.496;2023-09-19T11:00:03;99852.97;;;18.69;100.00
69848;BME280;57143;55.940;37.496;2023-09-19T11:03:17;99843.41;;;18.77;100.00
69848;BME280;57143;55.940;37.496;2023-09-19T11:06:04;99811.72;;;18.59;100.00
69848;BME280;57143;55.940;37.496;2023-09-19T11:08:52;99846.50;;;18.90;100.00
69848;BME280;57143;55.940;37.496;2023-09-19T11:11:47;99829.19;;;18.95;100.00
69848;BME280;57143;55.940;37.496;2023-09-19T11:14:42;99841.63;;;19.12;100.00
69848;BME280;57143;55.940;37.496;2023-09-19T11:17:43;99836.94;;;19.08;100.00
69848;BME280;57143;55.940;37.496;2023-09-19T11:20:24;99811.34;;;18.92;100.00
69848;BME280;57143;55.940;37.496;2023-09-19T11:23:21;99806.13;;;18.91;100.00
69848;BME280;57143;55.940;37.496;2023-09-19T11:25:53;99831.75;;;19.11;100.00
69848;BME280;57143;55.940;37.496;2023-09-19T11:28:44;99828.72;;;19.08;100.00
69848;BME280;57143;55.940;37.496;2023-09-19T11:34:44;99807.56;;;19.08;100.00
69848;BME280;57143;55.940;37.496;2023-09-19T11:40:36;99803.69;;;19.04;100.00
69848;BME280;57143;55.940;37.496;2023-09-19T11:43:28;99797.69;;;19.22;100.00
69848;BME280;57143;55.940;37.496;2023-09-19T11:46:08;99802.66;;;19.25;100.00
69848;BME280;57143;55.940;37.496;2023-09-19T11:48:38;99792.81;;;19.39;100.00
69848;BME280;57143;55.940;37.496;2023-09-19T11:51:19;99797.50;;;19.39;100.00
69848;BME280;57143;55.940;37.496;2023-09-19T11:53:49;99790.63;;;19.46;100.00
69848;BME280;57143;55.940;37.496;2023-09-19T11:56:18;99794.78;;;19.74;100.00
69848;BME280;57143;55.940;37.496;2023-09-19T11:58:46;99790.09;;;19.70;100.00
69848;BME280;57143;55.940;37.496;2023-09-19T12:01:22;99790.09;;;19.75;100.00
69848;BME280;57143;55.940;37.496;2023-09-19T12:03:53;99779.91;;;19.85;100.00
69848;BME280;57143;55.940;37.496;2023-09-19T12:06:24;99791.19;;;19.89;100.00
69848;BME280;57143;55.940;37.496;2023-09-19T12:08:53;99779.09;;;19.80;100.00
69848;BME280;57143;55.940;37.496;2023-09-19T12:11:22;99751.03;;;19.63;100.00
69848;BME280;57143;55.940;37.496;2023-09-19T12:13:50;99770.84;;;19.75;100.00
69848;BME280;57143;55.940;37.496;2023-09-19T12:16:20;99752.44;;;19.65;100.00
69848;BME280;57143;55.940;37.496;2023-09-19T12:18:51;99762.03;;;19.63;100.00
69848;BME280;57143;55.940;37.496;2023-09-19T12:21:26;99741.97;;;19.57;100.00
69848;BME280;57143;55.940;37.496;2023-09-19T12:24:13;99739.22;;;19.37;100.00
69848;BME280;57143;55.940;37.496;2023-09-19T12:26:45;99731.53;;;19.49;100.00
69848;BME280;57143;55.940;37.496;2023-09-19T12:29:15;99734.25;;;19.49;100.00
69848;BME280;57143;55.940;37.496;2023-09-19T12:31:50;99718.59;;;19.34;100.00
69848;BME280;57143;55.940;37.496;2023-09-19T12:34:20;99731.78;;;19.47;100.00
69848;BME280;57143;55.940;37.496;2023-09-19T12:37:03;99731.78;;;19.47;100.00
69848;BME280;57143;55.940;37.496;2023-09-19T12:39:31;99726.00;;;19.54;100.00
69848;BME280;57143;55.940;37.496;2023-09-19T12:41:58;99722.72;;;19.57;100.00
69848;BME280;57143;55.940;37.496;2023-09-19T12:44:30;99726.84;;;19.60;100.00
69848;BME280;57143;55.940;37.496;2023-09-19T12:46:59;99712.81;;;19.56;100.00
69848;BME280;57143;55.940;37.496;2023-09-19T12:49:27;99710.91;;;19.51;100.00
69848;BME280;57143;55.940;37.496;2023-09-19T12:51:56;99705.41;;;19.46;100.00
69848;BME280;57143;55.940;37.496;2023-09-19T12:54:25;99701.28;;;19.44;100.00
69848;BME280;57143;55.940;37.496;2023-09-19T12:56:52;99707.88;;;19.53;100.00
69848;BME280;57143;55.940;37.496;2023-09-19T12:59:29;99691.63;;;19.41;100.00
69848;BME280;57143;55.940;37.496;2023-09-19T13:02:04;99697.69;;;19.43;100.00
69848;BME280;57143;55.940;37.496;2023-09-19T13:04:33;99698.53;;;19.54;100.00
69848;BME280;57143;55.940;37.496;2023-09-19T13:07:07;99692.22;;;19.59;100.00
69848;BME280;57143;55.940;37.496;2023-09-19T13:09:36;99693.00;;;19.64;100.00